Terminal Aerodrome Forecast
Issued by NWS

Home | Current Version | Previous Version | Text Only | Print | Product List | Glossary On
Versions: 1 2 3 4 5 6 7 8 9 10 11 12 13
000
FTUS44 KTSA 271123
TAFMLC
TAF
KMLC 271123Z 2712/2812 18005KT P6SM BKN019 BKN035
     FM271500 19012G20KT P6SM OVC015
     FM271800 19014G20KT P6SM OVC025
     FM272200 19013G20KT P6SM OVC050
      TEMPO 2722/2802 VRB30G50KT 1SM +TSRA BKN015CB
     FM280600 19004KT 4SM BR OVC004=

USA.gov is the U.S. government's official web portal to all federal, state and local government web resources and services.